Time;durP1;ratioP1;P1;durP2;ratioP2;P2;SDS_P1;SDS_P2;PMS_P1;PMS_P2;Temp;Humidity;BMP_temperature;BMP_pressure;BME280_temperature;BME280_humidity;BME280_pressure;Samples;Min_cycle;Max_cycle;Signal;HPM_P1;HPM_P2
2022/08/24 00:00:00;;;;;;;46.17;33.42;;;;;;;19.71;93.29;101689.34;5068931;28;20499;-90
2022/08/24 00:02:26;;;;;;;44.55;33.15;;;;;;;19.69;92.19;101685.06;5065960;28;20032;-89
2022/08/24 00:04:52;;;;;;;49.67;33.92;;;;;;;19.65;92.76;101686.97;5068697;28;20020;-90
2022/08/24 00:07:19;;;;;;;51.72;35.22;;;;;;;19.68;94.14;101688.63;5063019;28;20039;-90
2022/08/24 00:09:46;;;;;;;46.33;33.97;;;;;;;19.67;93.67;101687.75;5068241;28;20451;-90
2022/08/24 00:12:12;;;;;;;45.08;32.53;;;;;;;19.64;93.63;101690.56;5061335;28;20059;-90
2022/08/24 00:14:38;;;;;;;49.80;36.10;;;;;;;19.62;93.92;101689.78;5067998;28;20028;-90
2022/08/24 00:17:04;;;;;;;47.92;35.53;;;;;;;19.61;93.82;101692.47;5067217;28;20036;-90
2022/08/24 00:19:29;;;;;;;47.08;35.78;;;;;;;19.60;94.27;101701.28;5068960;28;20036;-90
2022/08/24 00:21:55;;;;;;;47.95;33.97;;;;;;;19.57;94.13;101694.41;5060365;28;20052;-90
2022/08/24 00:24:20;;;;;;;46.47;33.30;;;;;;;19.51;94.45;101697.31;5062315;28;20028;-89
2022/08/24 00:26:46;;;;;;;46.88;33.10;;;;;;;19.48;94.52;101701.88;5063059;28;20116;-90
2022/08/24 00:29:13;;;;;;;47.42;33.22;;;;;;;19.48;94.60;101707.97;5054720;28;20032;-90
2022/08/24 00:31:39;;;;;;;43.28;32.38;;;;;;;19.43;93.97;101702.06;5058039;28;20103;-90
2022/08/24 00:34:05;;;;;;;49.03;34.60;;;;;;;19.38;94.61;101704.03;5065801;28;20124;-89
2022/08/24 00:36:30;;;;;;;51.92;36.80;;;;;;;19.38;94.93;101705.84;5060786;28;20036;-90
2022/08/24 00:38:56;;;;;;;52.35;35.70;;;;;;;19.36;95.69;101705.03;5064263;28;20090;-90
2022/08/24 00:41:21;;;;;;;50.27;36.83;;;;;;;19.31;95.49;101703.47;5064426;28;20047;-90
2022/08/24 00:43:58;;;;;;;50.65;35.55;;;;;;;19.30;94.67;101708.81;5060821;28;20299;-90
2022/08/24 00:46:47;;;;;;;51.83;34.92;;;;;;;19.27;95.38;101701.06;5068627;28;20028;-89
2022/08/24 00:49:39;;;;;;;52.05;36.10;;;;;;;19.27;94.60;101707.16;5058664;28;20028;-90
2022/08/24 00:52:11;;;;;;;50.72;35.28;;;;;;;19.23;94.94;101702.97;5062736;28;20047;-90
2022/08/24 00:54:41;;;;;;;52.15;35.78;;;;;;;19.21;95.83;101701.34;5065952;28;20031;-90
2022/08/24 00:57:10;;;;;;;53.78;36.35;;;;;;;19.18;96.20;101704.94;5059615;28;20058;-90
2022/08/24 00:59:41;;;;;;;52.53;37.17;;;;;;;19.13;96.75;101703.47;5066840;28;20058;-89
2022/08/24 01:02:12;;;;;;;55.53;38.05;;;;;;;19.12;96.91;101707.00;5061814;28;20039;-89
2022/08/24 01:04:44;;;;;;;55.13;38.22;;;;;;;19.13;97.09;101706.09;5055628;28;20035;-90
2022/08/24 01:07:10;;;;;;;54.50;37.15;;;;;;;19.13;96.20;101708.72;5067666;28;20028;-90
2022/08/24 01:09:35;;;;;;;55.72;38.90;;;;;;;19.10;97.13;101708.88;5068843;28;20055;-90
2022/08/24 01:12:01;;;;;;;58.42;39.90;;;;;;;19.10;96.83;101722.00;5067395;28;20036;-90
2022/08/24 01:14:27;;;;;;;54.90;37.90;;;;;;;19.10;96.96;101711.50;5064154;28;20033;-90
2022/08/24 01:19:41;;;;;;;58.33;39.15;;;;;;;19.07;96.50;101704.59;5064739;28;20055;-90
2022/08/24 01:22:49;;;;;;;58.28;39.78;;;;;;;19.07;96.29;101716.88;5062557;28;20036;-91
2022/08/24 01:25:15;;;;;;;58.42;40.42;;;;;;;19.06;97.31;101707.28;5059613;28;20031;-90
2022/08/24 01:27:41;;;;;;;57.70;39.08;;;;;;;19.01;97.51;101709.28;5052864;28;20511;-90
2022/08/24 01:30:12;;;;;;;57.08;39.47;;;;;;;19.00;97.29;101707.56;5056662;28;20043;-90
2022/08/24 01:32:38;;;;;;;57.72;39.75;;;;;;;18.98;97.78;101707.63;5066412;28;20128;-90
2022/08/24 01:35:04;;;;;;;59.70;40.95;;;;;;;18.99;97.42;101711.09;5060568;28;20067;-90
2022/08/24 01:37:31;;;;;;;57.35;39.55;;;;;;;18.98;97.13;101707.63;5057429;28;20056;-89
2022/08/24 01:39:59;;;;;;;61.70;41.67;;;;;;;18.96;98.27;101708.63;5069589;28;20078;-90
2022/08/24 01:42:25;;;;;;;61.05;40.22;;;;;;;18.88;98.24;101694.06;5066621;28;20393;-90
2022/08/24 01:44:51;;;;;;;61.53;42.10;;;;;;;18.92;98.87;101700.00;5065982;28;20555;-90
2022/08/24 01:47:17;;;;;;;57.70;39.75;;;;;;;18.89;97.97;101698.41;5063252;28;20033;-90
2022/08/24 01:49:47;;;;;;;60.03;41.13;;;;;;;18.90;98.37;101694.00;5056366;28;20647;-90
2022/08/24 01:52:22;;;;;;;60.45;40.75;;;;;;;18.87;98.68;101689.72;5054397;28;20021;-90
2022/08/24 01:54:48;;;;;;;56.50;40.45;;;;;;;18.84;98.25;101700.34;5066441;28;20029;-89
2022/08/24 01:57:14;;;;;;;58.65;40.55;;;;;;;18.78;98.59;101695.38;5057874;28;20444;-90
2022/08/24 01:59:40;;;;;;;57.35;39.88;;;;;;;18.76;99.06;101692.00;5052448;28;20032;-90
2022/08/24 02:02:15;;;;;;;57.90;40.55;;;;;;;18.71;99.04;101687.84;5059723;28;20099;-89
2022/08/24 02:04:40;;;;;;;56.83;39.53;;;;;;;18.70;98.65;101688.75;5066490;28;20031;-89
2022/08/24 02:07:08;;;;;;;61.40;41.53;;;;;;;18.70;98.97;101694.84;5061670;28;20041;-90
2022/08/24 02:09:33;;;;;;;58.88;39.08;;;;;;;18.65;98.81;101699.47;5067364;28;20032;-90
2022/08/24 02:11:59;;;;;;;54.35;38.53;;;;;;;18.63;98.53;101695.22;5064688;28;20020;-90
2022/08/24 02:14:24;;;;;;;60.67;40.70;;;;;;;18.60;98.98;101692.72;5068703;28;20024;-90
2022/08/24 02:16:50;;;;;;;56.90;39.35;;;;;;;18.56;98.66;101689.34;5060267;28;20025;-90
2022/08/24 02:19:15;;;;;;;54.20;38.10;;;;;;;18.58;98.60;101691.91;5063990;28;20527;-90
2022/08/24 02:21:40;;;;;;;54.00;38.50;;;;;;;18.49;98.49;101687.91;5068959;28;20036;-89
2022/08/24 02:24:06;;;;;;;55.78;38.08;;;;;;;18.48;98.64;101701.94;5062753;28;20063;-90
2022/08/24 02:26:32;;;;;;;54.75;38.45;;;;;;;18.43;98.60;101696.00;5060564;28;20070;-90
2022/08/24 02:28:57;;;;;;;56.22;39.75;;;;;;;18.39;98.39;101710.19;5065034;28;20025;-90
2022/08/24 02:31:22;;;;;;;58.97;40.70;;;;;;;18.34;98.39;101720.91;5058834;28;20028;-90
2022/08/24 02:33:48;;;;;;;62.53;42.83;;;;;;;18.31;99.45;101709.66;5068922;28;21567;-89
2022/08/24 02:36:14;;;;;;;60.30;41.87;;;;;;;18.28;99.49;101715.91;5059573;28;20387;-90
2022/08/24 02:38:39;;;;;;;59.65;41.65;;;;;;;18.23;99.84;101719.63;5068034;28;20299;-90
2022/08/24 02:41:05;;;;;;;62.00;42.00;;;;;;;18.23;99.90;101724.88;5071547;28;20024;-90
2022/08/24 02:43:31;;;;;;;62.60;43.63;;;;;;;18.17;99.69;101718.09;5065939;28;20074;-90
2022/08/24 02:45:56;;;;;;;63.00;42.25;;;;;;;18.20;99.91;101725.00;5069919;28;20104;-90
2022/08/24 02:48:22;;;;;;;61.23;42.50;;;;;;;18.18;100.00;101719.81;5067829;28;20568;-90
2022/08/24 02:50:49;;;;;;;61.58;41.00;;;;;;;18.17;99.59;101726.84;5072692;28;20278;-89
2022/08/24 02:53:17;;;;;;;65.35;44.40;;;;;;;18.13;100.00;101729.66;5063404;28;20028;-90
2022/08/24 02:55:43;;;;;;;62.15;43.25;;;;;;;18.10;100.00;101716.66;5069118;28;20088;-90
2022/08/24 02:58:10;;;;;;;61.83;41.92;;;;;;;18.11;99.71;101724.47;5067943;28;20052;-89
2022/08/24 03:00:37;;;;;;;60.45;43.63;;;;;;;18.07;100.00;101722.91;5068599;28;20039;-90
2022/08/24 03:03:05;;;;;;;58.35;41.75;;;;;;;18.06;100.00;101720.34;5068285;28;20050;-89
2022/08/24 03:05:30;;;;;;;60.50;41.30;;;;;;;18.08;100.00;101718.50;5066662;28;20020;-90
2022/08/24 03:07:56;;;;;;;58.97;40.92;;;;;;;18.05;99.97;101721.25;5068468;28;20021;-90
2022/08/24 03:10:22;;;;;;;60.38;41.97;;;;;;;17.97;99.54;101707.56;5069779;28;20028;-90
2022/08/24 03:12:49;;;;;;;60.90;40.63;;;;;;;17.98;100.00;101712.78;5069268;28;20119;-90
2022/08/24 03:15:15;;;;;;;56.42;40.22;;;;;;;17.94;99.74;101712.97;5070471;28;20126;-90
2022/08/24 03:17:42;;;;;;;58.95;41.28;;;;;;;17.90;100.00;101712.22;5068503;28;20099;-90
2022/08/24 03:20:12;;;;;;;58.45;40.85;;;;;;;17.86;99.85;101705.41;5063710;28;20108;-90
2022/08/24 03:22:38;;;;;;;60.65;42.47;;;;;;;17.85;100.00;101708.06;5071478;28;20032;-90
2022/08/24 03:25:05;;;;;;;55.83;40.00;;;;;;;17.84;100.00;101703.75;5070873;28;20024;-90
2022/08/24 03:27:30;;;;;;;62.45;42.60;;;;;;;17.83;100.00;101705.50;5067382;28;20036;-90
2022/08/24 03:29:56;;;;;;;58.78;40.78;;;;;;;17.83;100.00;101709.91;5069133;28;20043;-89
2022/08/24 03:32:21;;;;;;;57.35;39.88;;;;;;;17.79;99.99;101709.19;5061878;28;20048;-90
2022/08/24 03:34:47;;;;;;;61.05;41.00;;;;;;;17.75;99.83;101705.81;5063441;28;20039;-89
2022/08/24 03:37:12;;;;;;;58.10;40.70;;;;;;;17.69;100.00;101708.69;5067224;28;20077;-89
2022/08/24 03:39:38;;;;;;;57.08;40.03;;;;;;;17.64;100.00;101701.91;5067331;28;20032;-90
2022/08/24 03:42:04;;;;;;;65.03;41.28;;;;;;;17.58;100.00;101695.13;5068679;28;20122;-90
2022/08/24 03:44:29;;;;;;;56.28;39.45;;;;;;;17.61;100.00;101702.00;5057301;28;20045;-90
2022/08/24 03:46:55;;;;;;;58.85;39.85;;;;;;;17.53;100.00;101690.97;5068203;28;20035;-89
2022/08/24 03:49:20;;;;;;;56.35;37.92;;;;;;;17.55;100.00;101697.84;5070270;28;20020;-90
2022/08/24 03:51:46;;;;;;;55.20;37.90;;;;;;;17.49;100.00;101691.97;5066997;28;20028;-89
2022/08/24 03:54:13;;;;;;;53.72;36.53;;;;;;;17.55;100.00;101710.94;5067567;28;20028;-89
2022/08/24 03:56:39;;;;;;;51.92;36.67;;;;;;;17.52;100.00;101708.47;5056946;28;20051;-89
2022/08/24 03:59:06;;;;;;;48.33;34.63;;;;;;;17.52;100.00;101708.47;5067456;28;20382;-90
2022/08/24 04:01:32;;;;;;;53.65;35.45;;;;;;;17.48;100.00;101708.63;5064117;28;20025;-89
2022/08/24 04:03:57;;;;;;;49.50;35.17;;;;;;;17.45;100.00;101701.75;5062812;28;20094;-89
2022/08/24 04:06:23;;;;;;;49.03;35.85;;;;;;;17.43;100.00;101705.31;5056194;28;20059;-90
2022/08/24 04:08:51;;;;;;;53.85;37.42;;;;;;;17.41;100.00;101713.25;5067912;28;20027;-90
2022/08/24 04:11:19;;;;;;;57.30;38.78;;;;;;;17.35;100.00;101716.97;5069051;28;20370;-89
2022/08/24 04:13:46;;;;;;;64.18;40.60;;;;;;;17.35;100.00;101711.72;5068081;28;20520;-89
2022/08/24 04:16:14;;;;;;;54.42;38.00;;;;;;;17.37;100.00;101717.75;5069746;28;20020;-89
2022/08/24 04:18:40;;;;;;;55.20;37.38;;;;;;;17.33;100.00;101705.66;5056048;28;20032;-90
2022/08/24 04:21:06;;;;;;;57.05;39.08;;;;;;;17.33;100.00;101716.16;5067530;28;20520;-90
2022/08/24 04:23:32;;;;;;;58.10;39.63;;;;;;;17.31;100.00;101715.38;5061466;28;20028;-89
2022/08/24 04:26:03;;;;;;;64.55;42.25;;;;;;;17.30;100.00;101720.66;5066450;28;20033;-90
2022/08/24 04:28:29;;;;;;;60.90;40.33;;;;;;;17.27;100.00;101713.75;5062521;28;20048;-90
2022/08/24 04:30:54;;;;;;;57.63;39.85;;;;;;;17.31;100.00;101720.63;5064744;28;20071;-89
2022/08/24 04:33:19;;;;;;;59.33;41.33;;;;;;;17.29;100.00;101716.34;5063137;28;20599;-90
2022/08/24 04:35:47;;;;;;;61.78;40.58;;;;;;;17.26;100.00;101717.28;5058040;28;20330;-90
2022/08/24 04:38:14;;;;;;;59.53;40.80;;;;;;;17.24;100.00;101720.91;5061389;28;20024;-89
2022/08/24 04:40:43;;;;;;;61.33;41.38;;;;;;;17.24;100.00;101720.91;5068261;28;20405;-90
2022/08/24 04:43:09;;;;;;;58.60;40.30;;;;;;;17.24;100.00;101723.53;5067657;28;20027;-90
2022/08/24 04:45:39;;;;;;;56.28;38.45;;;;;;;17.24;100.00;101728.75;5068678;28;20053;-89
2022/08/24 04:48:05;;;;;;;57.92;39.83;;;;;;;17.22;100.00;101734.06;5063007;28;20063;-89
2022/08/24 04:50:34;;;;;;;57.00;39.53;;;;;;;17.17;100.00;101733.38;5070202;28;20120;-89
2022/08/24 04:53:00;;;;;;;60.83;38.97;;;;;;;17.18;100.00;101736.84;5062112;28;20103;-90
2022/08/24 04:55:25;;;;;;;59.85;39.08;;;;;;;17.17;100.00;101743.84;5063844;28;20128;-90
2022/08/24 04:57:50;;;;;;;63.63;39.47;;;;;;;17.18;100.00;101742.94;5063685;28;20108;-90
2022/08/24 05:00:16;;;;;;;59.33;39.80;;;;;;;17.16;100.00;101736.91;5063775;28;20026;-89
2022/08/24 05:02:41;;;;;;;63.13;41.15;;;;;;;17.19;100.00;101739.44;5065361;28;20043;-90
2022/08/24 05:05:08;;;;;;;65.03;41.27;;;;;;;17.20;100.00;101746.34;5061965;28;20381;-89
2022/08/24 05:07:34;;;;;;;58.55;39.53;;;;;;;17.22;100.00;101739.28;5063225;28;20278;-90
2022/08/24 05:09:59;;;;;;;63.63;41.20;;;;;;;17.23;100.00;101737.53;5069950;28;20021;-90
2022/08/24 05:12:24;;;;;;;60.80;40.78;;;;;;;17.22;100.00;101730.56;5059155;28;20040;-89
2022/08/24 05:14:50;;;;;;;59.97;40.40;;;;;;;17.24;100.00;101737.47;5062548;28;20036;-90
2022/08/24 05:17:15;;;;;;;63.20;40.22;;;;;;;17.23;100.00;101729.66;5067443;28;20428;-90
2022/08/24 05:19:40;;;;;;;60.35;40.60;;;;;;;17.27;100.00;101741.72;5058659;28;20490;-89
2022/08/24 05:22:06;;;;;;;62.03;40.97;;;;;;;17.26;100.00;101740.06;5053550;28;20363;-89
2022/08/24 05:24:31;;;;;;;61.55;40.80;;;;;;;17.24;100.00;101736.63;5058636;28;20048;-89
2022/08/24 05:26:59;;;;;;;59.78;39.55;;;;;;;17.29;100.00;101746.03;5067425;28;20070;-89
2022/08/24 05:29:24;;;;;;;58.90;38.20;;;;;;;17.34;100.00;101756.31;5069397;28;20400;-90
2022/08/24 05:31:49;;;;;;;56.45;37.53;;;;;;;17.27;100.00;101737.34;5063239;28;20649;-89
2022/08/24 05:34:15;;;;;;;56.67;38.30;;;;;;;17.41;100.00;101759.56;5064375;28;20056;-90
2022/08/24 05:36:41;;;;;;;58.42;40.17;;;;;;;17.43;100.00;101760.38;5066079;28;20283;-89
2022/08/24 05:39:09;;;;;;;64.30;40.03;;;;;;;17.44;100.00;101759.47;5069429;28;20032;-90
2022/08/24 05:41:35;;;;;;;66.43;40.00;;;;;;;17.42;100.00;101754.28;5069877;28;20012;-90
2022/08/24 05:44:01;;;;;;;72.47;39.05;;;;;;;17.49;100.00;101760.13;5063590;28;20074;-90
2022/08/24 05:46:27;;;;;;;72.90;38.65;;;;;;;17.50;100.00;101759.22;5057746;28;20025;-90
2022/08/24 05:48:53;;;;;;;97.47;41.47;;;;;;;17.50;100.00;101756.63;5062553;28;20413;-90
2022/08/24 05:51:19;;;;;;;88.85;39.65;;;;;;;17.48;100.00;101761.91;5065209;28;20044;-90
2022/08/24 05:53:45;;;;;;;71.90;38.72;;;;;;;17.51;100.00;101756.56;5055693;28;20120;-90
2022/08/24 05:56:12;;;;;;;73.63;37.10;;;;;;;17.55;100.00;101759.91;5064392;28;20068;-90
2022/08/24 05:58:38;;;;;;;67.35;37.53;;;;;;;17.55;100.00;101763.38;5055571;28;20040;-90
2022/08/24 06:01:16;;;;;;;66.78;39.53;;;;;;;17.62;100.00;101764.91;5064950;28;20025;-90
2022/08/24 06:03:43;;;;;;;68.25;40.55;;;;;;;17.64;100.00;101756.97;5065747;28;20040;-90
2022/08/24 06:06:09;;;;;;;68.13;40.63;;;;;;;17.69;100.00;101755.88;5055647;28;20550;-88
2022/08/24 06:08:36;;;;;;;69.43;42.03;;;;;;;17.72;100.00;101760.16;5060558;28;20612;-89
2022/08/24 06:11:01;;;;;;;68.78;42.90;;;;;;;17.75;100.00;101760.88;5068967;28;20057;-89
2022/08/24 06:13:28;;;;;;;70.80;43.78;;;;;;;17.83;100.00;101770.22;5068470;28;20032;-90
2022/08/24 06:16:05;;;;;;;72.38;45.42;;;;;;;17.87;100.00;101775.31;5054820;28;20037;-90
2022/08/24 06:18:31;;;;;;;67.15;43.90;;;;;;;17.91;100.00;101776.03;5062146;28;20031;-90
2022/08/24 06:20:56;;;;;;;69.15;45.95;;;;;;;17.97;100.00;101775.78;5073169;28;20028;-90
2022/08/24 06:23:22;;;;;;;67.25;43.97;;;;;;;17.98;100.00;101774.88;5066816;28;20024;-90
2022/08/24 06:28:32;;;;;;;81.32;51.90;;;;;;;18.09;100.00;101789.28;5066287;28;20297;-90
2022/08/24 06:31:06;;;;;;;76.15;49.22;;;;;;;18.15;100.00;101788.19;5064829;28;20032;-89
2022/08/24 06:33:32;;;;;;;80.05;51.35;;;;;;;18.17;100.00;101781.09;5053590;28;20032;-91
2022/08/24 06:35:57;;;;;;;85.32;54.88;;;;;;;18.23;100.00;101788.72;5055490;28;20495;-91
2022/08/24 06:38:22;;;;;;;86.32;55.58;;;;;;;18.31;100.00;101786.63;5059673;28;20128;-91
2022/08/24 06:40:48;;;;;;;81.47;54.90;;;;;;;18.35;100.00;101782.13;5063430;28;20028;-89
2022/08/24 06:43:13;;;;;;;95.53;60.05;;;;;;;18.42;100.00;101784.41;5061459;28;20304;-90
2022/08/24 06:45:42;;;;;;;92.85;59.95;;;;;;;18.50;100.00;101789.34;5059850;28;20061;-90
2022/08/24 06:48:08;;;;;;;93.35;62.90;;;;;;;18.55;100.00;101795.28;5075485;28;20653;-90
2022/08/24 06:50:33;;;;;;;84.97;57.58;;;;;;;18.56;100.00;101783.06;5060928;28;20588;-90
2022/08/24 06:53:00;;;;;;;93.18;59.92;;;;;;;18.72;100.00;101790.22;5060853;28;20028;-89
2022/08/24 06:55:26;;;;;;;95.82;60.53;;;;;;;18.82;100.00;101796.78;5056994;28;20106;-90
2022/08/24 06:57:51;;;;;;;92.60;58.50;;;;;;;18.92;100.00;101797.25;5064360;28;20032;-90
2022/08/24 07:00:17;;;;;;;86.80;56.85;;;;;;;19.01;100.00;101793.38;5061570;28;20078;-90
2022/08/24 07:02:42;;;;;;;98.50;66.03;;;;;;;19.10;100.00;101792.97;5060399;28;20032;-90
2022/08/24 07:05:08;;;;;;;97.55;62.13;;;;;;;19.19;100.00;101803.06;5059464;28;20017;-90
2022/08/24 07:07:33;;;;;;;98.93;62.05;;;;;;;19.30;100.00;101801.69;5062204;28;20034;-89
2022/08/24 07:10:00;;;;;;;84.25;56.50;;;;;;;19.39;100.00;101805.66;5060763;28;20038;-87
2022/08/24 07:12:25;;;;;;;91.03;59.53;;;;;;;19.46;100.00;101801.84;5060202;28;20028;-87
2022/08/24 07:14:51;;;;;;;87.75;59.63;;;;;;;19.51;100.00;101809.56;5067614;28;20047;-87
2022/08/24 07:17:17;;;;;;;85.35;57.80;;;;;;;19.57;100.00;101807.50;5064801;28;21029;-87
2022/08/24 07:19:42;;;;;;;86.20;58.80;;;;;;;19.64;100.00;101805.44;5067387;28;20025;-87
2022/08/24 07:22:08;;;;;;;85.57;57.95;;;;;;;19.71;100.00;101804.25;5069120;28;20043;-87
2022/08/24 07:24:33;;;;;;;83.90;55.50;;;;;;;19.85;100.00;101804.44;5078184;28;20046;-87
2022/08/24 07:26:58;;;;;;;71.13;51.17;;;;;;;19.94;100.00;101806.63;5069608;28;20157;-87
2022/08/24 07:29:24;;;;;;;74.43;51.53;;;;;;;20.00;100.00;101813.38;5069709;28;20300;-87
2022/08/24 07:31:49;;;;;;;77.05;53.83;;;;;;;20.03;100.00;101808.84;5066661;28;20386;-87
2022/08/24 07:34:14;;;;;;;79.10;53.60;;;;;;;20.07;100.00;101806.91;5069729;28;20030;-87
2022/08/24 07:36:40;;;;;;;77.13;52.70;;;;;;;20.09;100.00;101808.53;5069023;28;20286;-87
2022/08/24 07:39:06;;;;;;;69.20;48.88;;;;;;;20.12;100.00;101802.28;5075816;28;20032;-90
2022/08/24 07:41:37;;;;;;;65.72;47.70;;;;;;;20.19;100.00;101808.09;5069457;28;20029;-90
2022/08/24 07:44:03;;;;;;;70.72;49.42;;;;;;;20.26;100.00;101807.75;5061890;28;20095;-89
2022/08/24 07:46:28;;;;;;;69.32;47.47;;;;;;;20.32;100.00;101799.53;5051723;28;20062;-90
2022/08/24 07:48:53;;;;;;;62.33;45.87;;;;;;;20.41;98.32;101809.63;5073836;28;20064;-90
2022/08/24 07:51:19;;;;;;;66.32;47.88;;;;;;;20.49;99.77;101798.72;5060132;28;20608;-90
2022/08/24 07:53:45;;;;;;;62.85;46.00;;;;;;;20.56;100.00;101805.41;5070800;28;20520;-90
2022/08/24 07:56:11;;;;;;;63.33;44.58;;;;;;;20.63;99.57;101798.03;5070024;28;20405;-90
2022/08/24 07:58:36;;;;;;;59.13;42.55;;;;;;;20.74;99.77;101799.22;5071347;28;20050;-89
2022/08/24 08:01:03;;;;;;;59.78;43.13;;;;;;;20.85;98.72;101802.16;5071197;28;20056;-91
2022/08/24 08:03:32;;;;;;;57.13;42.28;;;;;;;20.97;99.34;101802.44;5072232;28;20058;-90
2022/08/24 08:06:01;;;;;;;61.83;42.28;;;;;;;21.05;98.89;101803.75;5067279;28;20051;-92
2022/08/24 08:08:27;;;;;;;54.90;39.55;;;;;;;21.29;95.63;101799.00;5069518;28;20115;-92
2022/08/24 08:10:53;;;;;;;51.00;35.42;;;;;;;21.75;92.75;101802.66;5069643;28;20024;-92
2022/08/24 08:13:19;;;;;;;49.53;35.95;;;;;;;22.25;89.67;101809.53;5069787;28;20032;-92
2022/08/24 08:15:44;;;;;;;45.63;34.90;;;;;;;22.69;92.65;101806.97;5070721;28;20031;-92
2022/08/24 08:18:11;;;;;;;42.30;33.20;;;;;;;23.00;89.88;101813.97;5069441;28;20036;-93
2022/08/24 08:20:38;;;;;;;38.20;29.08;;;;;;;23.31;88.54;101812.97;5068862;28;20490;-92
2022/08/24 08:25:48;;;;;;;;;;;;;;;23.99;91.70;101819.25;5068044;28;20043;-92
2022/08/24 08:28:14;;;;;;;30.25;22.63;;;;;;;24.24;81.64;101821.19;5070257;28;19912;-92
2022/08/24 08:30:40;;;;;;;28.85;21.67;;;;;;;24.56;84.58;101821.72;5070156;28;20033;-94
2022/08/24 08:33:06;;;;;;;22.23;16.63;;;;;;;24.86;72.86;101817.00;5068739;28;20039;-93
2022/08/24 08:35:32;;;;;;;23.75;17.38;;;;;;;25.08;76.42;101821.72;5070269;28;20050;-93
2022/08/24 08:37:58;;;;;;;18.25;14.57;;;;;;;25.38;77.76;101824.06;5070031;28;20028;-93
2022/08/24 08:40:44;;;;;;;14.38;9.77;;;;;;;25.58;74.60;101820.88;5070511;28;20031;-93
2022/08/24 08:43:36;;;;;;;15.75;10.00;;;;;;;25.77;73.31;101812.41;5048168;28;20037;-93
2022/08/24 08:46:21;;;;;;;15.80;10.90;;;;;;;26.06;76.30;101821.78;5068872;28;20438;-92
2022/08/24 08:49:14;;;;;;;23.08;14.43;;;;;;;26.26;73.64;101820.34;5068945;28;20116;-92
2022/08/24 08:51:55;;;;;;;23.93;17.13;;;;;;;26.56;73.50;101823.38;5057626;28;20286;-93
2022/08/24 08:54:58;;;;;;;25.50;17.42;;;;;;;26.77;73.95;101825.38;5070042;28;20024;-93
2022/08/24 08:57:45;;;;;;;20.20;14.02;;;;;;;26.94;72.30;101817.84;5070333;28;20035;-93
2022/08/24 09:00:21;;;;;;;15.73;11.65;;;;;;;27.18;67.48;101816.88;5061326;28;20156;-93
2022/08/24 09:03:25;;;;;;;14.25;10.45;;;;;;;27.38;65.89;101817.03;5075315;28;20488;-93
2022/08/24 09:05:57;;;;;;;;;;;;;;;27.63;71.17;101820.44;5072705;28;20028;-92
2022/08/24 09:08:39;;;;;;;12.77;9.23;;;;;;;27.73;62.57;101821.38;5068676;28;19996;-94
2022/08/24 09:11:20;;;;;;;12.93;10.77;;;;;;;27.85;60.74;101823.06;5070091;28;20031;-92
2022/08/24 09:14:07;;;;;;;12.48;9.90;;;;;;;27.85;62.15;101825.72;5069866;28;21011;-94
2022/08/24 09:17:12;;;;;;;16.35;12.50;;;;;;;27.98;63.58;101818.41;5057758;28;20032;-93
2022/08/24 09:19:55;;;;;;;10.00;6.65;;;;;;;28.17;60.67;101823.16;5070405;28;20036;-93
2022/08/24 09:22:21;;;;;;;15.68;11.35;;;;;;;28.33;56.84;101822.72;5069728;28;20035;-94
2022/08/24 09:24:52;;;;;;;13.68;10.70;;;;;;;28.42;58.47;101828.13;5069730;28;20100;-93
2022/08/24 09:27:39;;;;;;;10.40;8.63;;;;;;;28.47;58.17;101825.94;5069861;28;20086;-93
2022/08/24 09:30:11;;;;;;;8.80;6.20;;;;;;;28.47;54.85;101819.75;5069619;28;20017;-92
2022/08/24 09:32:59;;;;;;;11.55;6.40;;;;;;;28.60;58.60;101823.91;5068499;28;20119;-93
2022/08/24 09:35:37;;;;;;;7.82;5.63;;;;;;;28.49;56.92;101823.13;5067814;28;20032;-93
2022/08/24 09:38:21;;;;;;;14.77;8.00;;;;;;;28.56;54.11;101822.50;5057927;28;20059;-92
2022/08/24 09:41:08;;;;;;;10.48;8.18;;;;;;;28.53;58.36;101824.56;5068172;28;20115;-92
2022/08/24 09:43:54;;;;;;;10.07;6.97;;;;;;;28.60;58.12;101828.41;5069442;28;20031;-92
2022/08/24 09:46:34;;;;;;;10.27;6.97;;;;;;;28.52;54.19;101829.09;5060517;28;20021;-93
2022/08/24 09:49:38;;;;;;;9.25;6.45;;;;;;;28.56;57.28;101827.84;5069793;28;20078;-92
2022/08/24 09:52:50;;;;;;;8.80;5.22;;;;;;;28.67;56.42;101825.09;5068302;28;20485;-93
2022/08/24 09:55:55;;;;;;;9.77;6.95;;;;;;;28.60;54.40;101825.75;5069248;28;20031;-92
2022/08/24 09:58:39;;;;;;;9.02;6.68;;;;;;;28.50;54.82;101824.84;5067780;28;20394;-93
2022/08/24 10:01:07;;;;;;;10.90;6.22;;;;;;;28.64;56.51;101822.72;5055881;28;20033;-94
2022/08/24 10:03:46;;;;;;;7.90;5.88;;;;;;;28.73;55.78;101818.38;5068090;28;20089;-94
2022/08/24 10:06:44;;;;;;;7.20;5.28;;;;;;;28.81;54.52;101823.97;5062710;28;20020;-93
2022/08/24 10:09:38;;;;;;;6.95;5.07;;;;;;;28.77;57.70;101819.88;5055576;28;20385;-93
2022/08/24 10:12:13;;;;;;;;;;;;;;;28.82;58.21;101817.66;5054379;28;20126;-95
2022/08/24 10:15:03;;;;;;;7.00;4.90;;;;;;;28.75;56.55;101813.81;5069489;28;19916;-93
2022/08/24 10:18:03;;;;;;;5.95;4.72;;;;;;;28.78;56.83;101812.72;5055106;28;20028;-92
2022/08/24 10:21:08;;;;;;;9.30;6.38;;;;;;;28.76;54.45;101810.16;5067956;28;20211;-93
2022/08/24 10:24:01;;;;;;;8.60;5.60;;;;;;;28.78;54.58;101796.69;5047948;28;20029;-93
2022/08/24 10:27:10;;;;;;;7.25;5.20;;;;;;;28.83;55.23;101798.00;5067832;28;20390;-94
2022/08/24 10:30:13;;;;;;;8.15;5.40;;;;;;;28.89;54.85;101797.47;5068900;28;20035;-92
2022/08/24 10:32:49;;;;;;;7.40;5.55;;;;;;;28.85;50.46;101803.22;5057739;28;20035;-93
2022/08/24 10:35:44;;;;;;;6.43;5.10;;;;;;;28.87;53.98;101796.75;5067218;28;20021;-93
2022/08/24 10:41:20;;;;;;;5.93;4.30;;;;;;;28.46;53.17;101800.22;5069243;28;20396;-93
2022/08/24 10:44:04;;;;;;;7.18;5.50;;;;;;;28.43;54.66;101796.97;5067584;28;20049;-93
2022/08/24 10:46:51;;;;;;;7.35;5.20;;;;;;;28.55;51.34;101795.94;5069240;28;20025;-94
2022/08/24 10:49:19;;;;;;;7.50;5.05;;;;;;;28.70;50.73;101794.66;5068559;28;20035;-88
2022/08/24 10:52:21;;;;;;;6.75;4.85;;;;;;;28.78;54.24;101791.38;5068528;28;20055;-88
2022/08/24 10:54:46;;;;;;;6.38;5.25;;;;;;;28.89;49.52;101789.47;5070606;28;20103;-88
2022/08/24 10:57:38;;;;;;;7.68;4.55;;;;;;;29.04;53.62;101784.63;5072790;28;20035;-88
2022/08/24 11:00:13;;;;;;;5.97;4.43;;;;;;;29.10;52.59;101781.41;5072115;28;20036;-88
2022/08/24 11:02:41;;;;;;;7.57;4.32;;;;;;;29.16;50.46;101786.22;5072077;28;20020;-88
2022/08/24 11:05:10;;;;;;;5.57;3.78;;;;;;;29.16;51.56;101786.22;5072063;28;20024;-88
2022/08/24 11:07:44;;;;;;;5.55;3.38;;;;;;;29.27;50.93;101778.13;5072078;28;20016;-88
2022/08/24 11:10:24;;;;;;;4.93;3.25;;;;;;;29.27;52.09;101786.16;5070436;28;20101;-88
2022/08/24 11:12:52;;;;;;;3.22;2.67;;;;;;;29.21;49.72;101775.13;5065296;28;20017;-88
2022/08/24 11:15:17;;;;;;;5.20;2.63;;;;;;;29.15;47.79;101787.19;5070228;28;20082;-89
2022/08/24 11:18:00;;;;;;;5.63;2.60;;;;;;;29.05;50.78;101776.50;5071627;28;20036;-89
2022/08/24 11:20:29;;;;;;;3.50;2.80;;;;;;;28.81;49.09;101777.75;5071906;28;20433;-88
2022/08/24 11:23:10;;;;;;;4.68;2.80;;;;;;;28.77;51.17;101777.16;5071612;28;20275;-88
2022/08/24 11:25:37;;;;;;;3.17;2.80;;;;;;;28.75;49.69;101771.09;5072304;28;20047;-88
2022/08/24 11:28:16;;;;;;;4.78;3.03;;;;;;;28.70;49.67;101775.97;5062572;28;20485;-88
2022/08/24 11:30:42;;;;;;;6.70;3.90;;;;;;;28.89;49.93;101775.25;5071880;28;20078;-88
2022/08/24 11:33:25;;;;;;;6.47;3.40;;;;;;;29.12;52.36;101767.94;5071226;28;20100;-88
2022/08/24 11:35:51;;;;;;;7.28;3.80;;;;;;;29.26;49.54;101756.91;5071471;28;20032;-88